sensor_id;sensor_type;location;lat;lon;timestamp;P1;durP1;ratioP1;P2;durP2;ratioP2
70605;SDS011;58173;52.500;5.494;2023-07-28T00:01:05;14.30;;;5.10;;
70605;SDS011;58173;52.500;5.494;2023-07-28T00:03:32;21.13;;;5.65;;
70605;SDS011;58173;52.500;5.494;2023-07-28T00:06:00;16.45;;;5.80;;
70605;SDS011;58173;52.500;5.494;2023-07-28T00:08:27;16.90;;;5.80;;
70605;SDS011;58173;52.500;5.494;2023-07-28T00:10:54;14.65;;;4.97;;
70605;SDS011;58173;52.500;5.494;2023-07-28T00:13:23;16.25;;;5.70;;
70605;SDS011;58173;52.500;5.494;2023-07-28T00:15:50;16.35;;;5.53;;
70605;SDS011;58173;52.500;5.494;2023-07-28T00:18:18;16.15;;;5.38;;
70605;SDS011;58173;52.500;5.494;2023-07-28T00:20:47;20.70;;;5.20;;
70605;SDS011;58173;52.500;5.494;2023-07-28T00:23:14;16.65;;;5.05;;
70605;SDS011;58173;52.500;5.494;2023-07-28T00:25:41;19.25;;;6.20;;
70605;SDS011;58173;52.500;5.494;2023-07-28T00:28:08;17.33;;;5.40;;
70605;SDS011;58173;52.500;5.494;2023-07-28T00:30:36;15.02;;;5.05;;
70605;SDS011;58173;52.500;5.494;2023-07-28T00:33:03;17.83;;;5.43;;
70605;SDS011;58173;52.500;5.494;2023-07-28T00:35:30;18.20;;;5.45;;
70605;SDS011;58173;52.500;5.494;2023-07-28T00:37:58;15.23;;;5.18;;
70605;SDS011;58173;52.500;5.494;2023-07-28T00:40:25;17.30;;;5.28;;
70605;SDS011;58173;52.500;5.494;2023-07-28T00:42:51;17.90;;;5.13;;
70605;SDS011;58173;52.500;5.494;2023-07-28T00:45:19;18.58;;;5.57;;
70605;SDS011;58173;52.500;5.494;2023-07-28T00:47:47;16.17;;;5.32;;
70605;SDS011;58173;52.500;5.494;2023-07-28T00:50:17;15.82;;;5.13;;
70605;SDS011;58173;52.500;5.494;2023-07-28T00:52:44;14.70;;;4.75;;
70605;SDS011;58173;52.500;5.494;2023-07-28T00:55:12;14.77;;;4.80;;
70605;SDS011;58173;52.500;5.494;2023-07-28T00:57:39;15.65;;;5.72;;
70605;SDS011;58173;52.500;5.494;2023-07-28T01:00:07;17.00;;;4.88;;
70605;SDS011;58173;52.500;5.494;2023-07-28T01:02:35;15.23;;;4.93;;
70605;SDS011;58173;52.500;5.494;2023-07-28T01:05:02;14.02;;;4.97;;
70605;SDS011;58173;52.500;5.494;2023-07-28T01:10:32;17.23;;;5.10;;
70605;SDS011;58173;52.500;5.494;2023-07-28T01:13:00;12.30;;;4.57;;
70605;SDS011;58173;52.500;5.494;2023-07-28T01:15:27;15.43;;;5.40;;
70605;SDS011;58173;52.500;5.494;2023-07-28T01:17:54;13.48;;;4.80;;
70605;SDS011;58173;52.500;5.494;2023-07-28T01:20:22;15.82;;;5.00;;
70605;SDS011;58173;52.500;5.494;2023-07-28T01:23:05;18.05;;;5.18;;
70605;SDS011;58173;52.500;5.494;2023-07-28T01:28:27;17.30;;;4.85;;
70605;SDS011;58173;52.500;5.494;2023-07-28T01:30:54;17.90;;;5.10;;
70605;SDS011;58173;52.500;5.494;2023-07-28T01:33:21;18.10;;;5.93;;
70605;SDS011;58173;52.500;5.494;2023-07-28T01:35:51;14.63;;;4.97;;
70605;SDS011;58173;52.500;5.494;2023-07-28T01:38:21;15.32;;;5.43;;
70605;SDS011;58173;52.500;5.494;2023-07-28T01:40:50;15.60;;;4.65;;
70605;SDS011;58173;52.500;5.494;2023-07-28T01:43:19;13.13;;;5.00;;
70605;SDS011;58173;52.500;5.494;2023-07-28T01:45:46;17.33;;;5.07;;
70605;SDS011;58173;52.500;5.494;2023-07-28T01:48:14;15.93;;;5.07;;
70605;SDS011;58173;52.500;5.494;2023-07-28T01:50:41;16.95;;;5.30;;
70605;SDS011;58173;52.500;5.494;2023-07-28T01:53:09;15.23;;;5.30;;
70605;SDS011;58173;52.500;5.494;2023-07-28T01:55:36;16.00;;;5.07;;
70605;SDS011;58173;52.500;5.494;2023-07-28T01:58:03;14.43;;;5.28;;
70605;SDS011;58173;52.500;5.494;2023-07-28T02:00:32;15.45;;;5.45;;
70605;SDS011;58173;52.500;5.494;2023-07-28T02:02:59;15.55;;;5.53;;
70605;SDS011;58173;52.500;5.494;2023-07-28T02:05:28;20.08;;;5.95;;
70605;SDS011;58173;52.500;5.494;2023-07-28T02:07:56;19.20;;;5.75;;
70605;SDS011;58173;52.500;5.494;2023-07-28T02:10:26;14.25;;;5.95;;
70605;SDS011;58173;52.500;5.494;2023-07-28T02:12:53;17.00;;;5.22;;
70605;SDS011;58173;52.500;5.494;2023-07-28T02:15:21;17.27;;;5.75;;
70605;SDS011;58173;52.500;5.494;2023-07-28T02:17:48;15.25;;;5.60;;
70605;SDS011;58173;52.500;5.494;2023-07-28T02:20:15;21.42;;;6.35;;
70605;SDS011;58173;52.500;5.494;2023-07-28T02:22:42;16.13;;;5.47;;
70605;SDS011;58173;52.500;5.494;2023-07-28T02:25:10;22.63;;;5.88;;
70605;SDS011;58173;52.500;5.494;2023-07-28T02:27:38;20.08;;;6.45;;
70605;SDS011;58173;52.500;5.494;2023-07-28T02:30:05;15.35;;;5.80;;
70605;SDS011;58173;52.500;5.494;2023-07-28T02:32:33;16.92;;;6.15;;
70605;SDS011;58173;52.500;5.494;2023-07-28T02:35:01;17.63;;;5.63;;
70605;SDS011;58173;52.500;5.494;2023-07-28T02:37:28;17.13;;;5.95;;
70605;SDS011;58173;52.500;5.494;2023-07-28T02:39:55;19.55;;;6.22;;
70605;SDS011;58173;52.500;5.494;2023-07-28T02:42:23;18.08;;;6.18;;
70605;SDS011;58173;52.500;5.494;2023-07-28T02:44:51;17.20;;;5.78;;
70605;SDS011;58173;52.500;5.494;2023-07-28T02:47:18;19.42;;;5.53;;
70605;SDS011;58173;52.500;5.494;2023-07-28T02:49:45;21.48;;;5.93;;
70605;SDS011;58173;52.500;5.494;2023-07-28T02:52:13;15.57;;;5.78;;
70605;SDS011;58173;52.500;5.494;2023-07-28T02:54:40;18.00;;;6.18;;
70605;SDS011;58173;52.500;5.494;2023-07-28T02:57:08;16.88;;;5.60;;
70605;SDS011;58173;52.500;5.494;2023-07-28T02:59:42;19.63;;;5.95;;
70605;SDS011;58173;52.500;5.494;2023-07-28T03:02:09;20.63;;;5.90;;
70605;SDS011;58173;52.500;5.494;2023-07-28T03:04:36;18.23;;;5.85;;
70605;SDS011;58173;52.500;5.494;2023-07-28T03:07:15;18.60;;;6.22;;
70605;SDS011;58173;52.500;5.494;2023-07-28T03:09:46;18.40;;;6.63;;
70605;SDS011;58173;52.500;5.494;2023-07-28T03:12:13;15.82;;;5.55;;
70605;SDS011;58173;52.500;5.494;2023-07-28T03:14:40;18.70;;;5.88;;
70605;SDS011;58173;52.500;5.494;2023-07-28T03:17:07;18.65;;;6.07;;
70605;SDS011;58173;52.500;5.494;2023-07-28T03:19:37;17.98;;;6.72;;
70605;SDS011;58173;52.500;5.494;2023-07-28T03:22:04;16.40;;;6.47;;
70605;SDS011;58173;52.500;5.494;2023-07-28T03:24:33;19.60;;;6.32;;
70605;SDS011;58173;52.500;5.494;2023-07-28T03:27:01;16.33;;;5.82;;
70605;SDS011;58173;52.500;5.494;2023-07-28T03:29:28;19.02;;;6.10;;
70605;SDS011;58173;52.500;5.494;2023-07-28T03:31:55;19.25;;;6.20;;
70605;SDS011;58173;52.500;5.494;2023-07-28T03:34:22;20.23;;;6.97;;
70605;SDS011;58173;52.500;5.494;2023-07-28T03:36:51;18.75;;;6.20;;
70605;SDS011;58173;52.500;5.494;2023-07-28T03:39:18;17.95;;;6.55;;
70605;SDS011;58173;52.500;5.494;2023-07-28T03:41:47;18.70;;;6.43;;
70605;SDS011;58173;52.500;5.494;2023-07-28T03:44:14;20.58;;;6.15;;
70605;SDS011;58173;52.500;5.494;2023-07-28T03:46:42;18.90;;;6.45;;
70605;SDS011;58173;52.500;5.494;2023-07-28T03:49:10;19.27;;;6.50;;
70605;SDS011;58173;52.500;5.494;2023-07-28T03:51:40;18.85;;;6.18;;
70605;SDS011;58173;52.500;5.494;2023-07-28T03:54:08;19.52;;;6.80;;
70605;SDS011;58173;52.500;5.494;2023-07-28T03:56:35;18.45;;;6.80;;
70605;SDS011;58173;52.500;5.494;2023-07-28T03:59:03;22.20;;;7.32;;
70605;SDS011;58173;52.500;5.494;2023-07-28T04:01:30;24.75;;;7.20;;
70605;SDS011;58173;52.500;5.494;2023-07-28T04:03:57;22.98;;;6.95;;
70605;SDS011;58173;52.500;5.494;2023-07-28T04:06:42;20.67;;;6.45;;
70605;SDS011;58173;52.500;5.494;2023-07-28T04:09:13;20.80;;;7.60;;
70605;SDS011;58173;52.500;5.494;2023-07-28T04:11:41;17.27;;;6.95;;
70605;SDS011;58173;52.500;5.494;2023-07-28T04:14:08;20.65;;;7.03;;
70605;SDS011;58173;52.500;5.494;2023-07-28T04:16:35;22.80;;;7.70;;
70605;SDS011;58173;52.500;5.494;2023-07-28T04:19:03;18.00;;;6.97;;
70605;SDS011;58173;52.500;5.494;2023-07-28T04:21:30;18.77;;;7.55;;
70605;SDS011;58173;52.500;5.494;2023-07-28T04:23:57;23.60;;;7.70;;
70605;SDS011;58173;52.500;5.494;2023-07-28T04:26:25;22.50;;;7.53;;
70605;SDS011;58173;52.500;5.494;2023-07-28T04:28:59;23.50;;;8.77;;
70605;SDS011;58173;52.500;5.494;2023-07-28T04:31:27;20.15;;;7.75;;
70605;SDS011;58173;52.500;5.494;2023-07-28T04:33:58;18.48;;;7.80;;
70605;SDS011;58173;52.500;5.494;2023-07-28T04:36:41;25.75;;;8.18;;
70605;SDS011;58173;52.500;5.494;2023-07-28T04:39:09;21.33;;;6.70;;
70605;SDS011;58173;52.500;5.494;2023-07-28T04:41:36;26.13;;;8.63;;
70605;SDS011;58173;52.500;5.494;2023-07-28T04:44:03;24.75;;;7.80;;
70605;SDS011;58173;52.500;5.494;2023-07-28T04:46:34;26.25;;;7.95;;
70605;SDS011;58173;52.500;5.494;2023-07-28T04:49:06;23.80;;;8.88;;
70605;SDS011;58173;52.500;5.494;2023-07-28T04:52:12;23.55;;;7.13;;
70605;SDS011;58173;52.500;5.494;2023-07-28T04:54:57;18.88;;;6.97;;
70605;SDS011;58173;52.500;5.494;2023-07-28T04:57:27;25.70;;;7.97;;
70605;SDS011;58173;52.500;5.494;2023-07-28T04:59:54;20.23;;;7.38;;
70605;SDS011;58173;52.500;5.494;2023-07-28T05:02:21;19.20;;;6.72;;
70605;SDS011;58173;52.500;5.494;2023-07-28T05:04:48;22.27;;;6.93;;
70605;SDS011;58173;52.500;5.494;2023-07-28T05:07:16;22.65;;;7.05;;
70605;SDS011;58173;52.500;5.494;2023-07-28T05:09:43;18.75;;;6.45;;
70605;SDS011;58173;52.500;5.494;2023-07-28T05:12:11;22.67;;;7.50;;
70605;SDS011;58173;52.500;5.494;2023-07-28T05:14:42;17.02;;;7.00;;
70605;SDS011;58173;52.500;5.494;2023-07-28T05:17:11;17.23;;;7.40;;
70605;SDS011;58173;52.500;5.494;2023-07-28T05:19:45;19.25;;;6.85;;
70605;SDS011;58173;52.500;5.494;2023-07-28T05:22:21;19.95;;;6.97;;
70605;SDS011;58173;52.500;5.494;2023-07-28T05:24:51;15.35;;;6.43;;
70605;SDS011;58173;52.500;5.494;2023-07-28T05:27:23;16.85;;;6.75;;
70605;SDS011;58173;52.500;5.494;2023-07-28T05:29:50;18.48;;;7.05;;
70605;SDS011;58173;52.500;5.494;2023-07-28T05:32:18;18.60;;;7.05;;
70605;SDS011;58173;52.500;5.494;2023-07-28T05:35:01;19.92;;;6.93;;
70605;SDS011;58173;52.500;5.494;2023-07-28T05:37:28;19.67;;;6.90;;
70605;SDS011;58173;52.500;5.494;2023-07-28T05:39:58;19.05;;;6.97;;
70605;SDS011;58173;52.500;5.494;2023-07-28T05:42:25;16.80;;;6.93;;
70605;SDS011;58173;52.500;5.494;2023-07-28T05:44:53;22.50;;;6.65;;
70605;SDS011;58173;52.500;5.494;2023-07-28T05:47:21;18.38;;;6.10;;
70605;SDS011;58173;52.500;5.494;2023-07-28T05:49:50;17.73;;;6.63;;
70605;SDS011;58173;52.500;5.494;2023-07-28T05:52:20;14.35;;;5.88;;
70605;SDS011;58173;52.500;5.494;2023-07-28T05:54:49;20.90;;;6.68;;
70605;SDS011;58173;52.500;5.494;2023-07-28T05:57:16;21.30;;;6.22;;
70605;SDS011;58173;52.500;5.494;2023-07-28T05:59:43;20.52;;;6.15;;
70605;SDS011;58173;52.500;5.494;2023-07-28T06:02:10;21.08;;;6.18;;
70605;SDS011;58173;52.500;5.494;2023-07-28T06:04:52;17.25;;;6.47;;
70605;SDS011;58173;52.500;5.494;2023-07-28T06:07:19;17.02;;;6.00;;
70605;SDS011;58173;52.500;5.494;2023-07-28T06:09:47;19.60;;;6.90;;
70605;SDS011;58173;52.500;5.494;2023-07-28T06:12:17;20.75;;;6.80;;
70605;SDS011;58173;52.500;5.494;2023-07-28T06:14:44;17.83;;;7.35;;
70605;SDS011;58173;52.500;5.494;2023-07-28T06:17:11;20.35;;;6.47;;
70605;SDS011;58173;52.500;5.494;2023-07-28T06:19:39;18.55;;;6.40;;
70605;SDS011;58173;52.500;5.494;2023-07-28T06:22:07;16.13;;;6.72;;
70605;SDS011;58173;52.500;5.494;2023-07-28T06:24:41;18.55;;;7.22;;
70605;SDS011;58173;52.500;5.494;2023-07-28T06:27:11;21.42;;;7.78;;
70605;SDS011;58173;52.500;5.494;2023-07-28T06:29:39;19.60;;;6.93;;
70605;SDS011;58173;52.500;5.494;2023-07-28T06:32:07;19.15;;;6.85;;
70605;SDS011;58173;52.500;5.494;2023-07-28T06:34:34;18.45;;;7.03;;
70605;SDS011;58173;52.500;5.494;2023-07-28T06:37:01;18.58;;;6.55;;
70605;SDS011;58173;52.500;5.494;2023-07-28T06:39:29;18.52;;;6.20;;
70605;SDS011;58173;52.500;5.494;2023-07-28T06:41:56;17.10;;;7.00;;
70605;SDS011;58173;52.500;5.494;2023-07-28T06:44:24;15.85;;;6.60;;
70605;SDS011;58173;52.500;5.494;2023-07-28T06:46:51;19.15;;;5.90;;
70605;SDS011;58173;52.500;5.494;2023-07-28T06:49:19;14.70;;;5.57;;
70605;SDS011;58173;52.500;5.494;2023-07-28T06:51:46;18.77;;;5.45;;
70605;SDS011;58173;52.500;5.494;2023-07-28T06:54:13;18.65;;;5.93;;
70605;SDS011;58173;52.500;5.494;2023-07-28T06:56:40;16.40;;;6.55;;
70605;SDS011;58173;52.500;5.494;2023-07-28T06:59:07;16.20;;;6.15;;
70605;SDS011;58173;52.500;5.494;2023-07-28T07:01:43;18.77;;;6.50;;
70605;SDS011;58173;52.500;5.494;2023-07-28T07:04:14;15.63;;;6.10;;
70605;SDS011;58173;52.500;5.494;2023-07-28T07:06:41;16.02;;;6.35;;
70605;SDS011;58173;52.500;5.494;2023-07-28T07:09:08;19.00;;;6.43;;
70605;SDS011;58173;52.500;5.494;2023-07-28T07:11:39;15.75;;;6.10;;
70605;SDS011;58173;52.500;5.494;2023-07-28T07:14:07;19.60;;;6.78;;
70605;SDS011;58173;52.500;5.494;2023-07-28T07:16:35;16.65;;;6.47;;
70605;SDS011;58173;52.500;5.494;2023-07-28T07:19:02;16.42;;;6.50;;
70605;SDS011;58173;52.500;5.494;2023-07-28T07:21:33;17.38;;;6.80;;
70605;SDS011;58173;52.500;5.494;2023-07-28T07:24:02;17.02;;;6.32;;
70605;SDS011;58173;52.500;5.494;2023-07-28T07:26:29;15.23;;;6.18;;
70605;SDS011;58173;52.500;5.494;2023-07-28T07:28:57;19.25;;;7.28;;
70605;SDS011;58173;52.500;5.494;2023-07-28T07:31:25;20.63;;;6.65;;
70605;SDS011;58173;52.500;5.494;2023-07-28T07:33:52;21.08;;;6.90;;
70605;SDS011;58173;52.500;5.494;2023-07-28T07:36:20;20.70;;;6.85;;
70605;SDS011;58173;52.500;5.494;2023-07-28T07:38:53;17.98;;;6.57;;
70605;SDS011;58173;52.500;5.494;2023-07-28T07:41:21;18.27;;;6.90;;
70605;SDS011;58173;52.500;5.494;2023-07-28T07:43:49;14.90;;;6.55;;
70605;SDS011;58173;52.500;5.494;2023-07-28T07:46:19;15.27;;;6.05;;
70605;SDS011;58173;52.500;5.494;2023-07-28T07:48:46;14.95;;;6.32;;
70605;SDS011;58173;52.500;5.494;2023-07-28T07:51:13;15.48;;;6.13;;
70605;SDS011;58173;52.500;5.494;2023-07-28T07:53:40;15.38;;;6.45;;
70605;SDS011;58173;52.500;5.494;2023-07-28T07:56:07;18.17;;;7.03;;
70605;SDS011;58173;52.500;5.494;2023-07-28T07:58:35;15.98;;;6.20;;
70605;SDS011;58173;52.500;5.494;2023-07-28T08:01:02;15.05;;;6.50;;
70605;SDS011;58173;52.500;5.494;2023-07-28T08:03:30;15.40;;;6.60;;
70605;SDS011;58173;52.500;5.494;2023-07-28T08:05:58;13.88;;;6.80;;
70605;SDS011;58173;52.500;5.494;2023-07-28T08:08:25;16.30;;;6.72;;
70605;SDS011;58173;52.500;5.494;2023-07-28T08:10:54;17.90;;;7.05;;
70605;SDS011;58173;52.500;5.494;2023-07-28T08:13:21;16.98;;;7.20;;
70605;SDS011;58173;52.500;5.494;2023-07-28T08:15:49;12.40;;;5.90;;
70605;SDS011;58173;52.500;5.494;2023-07-28T08:18:16;15.25;;;6.88;;
70605;SDS011;58173;52.500;5.494;2023-07-28T08:20:44;16.33;;;6.75;;
70605;SDS011;58173;52.500;5.494;2023-07-28T08:23:11;15.80;;;6.53;;
70605;SDS011;58173;52.500;5.494;2023-07-28T08:25:38;13.30;;;5.60;;
70605;SDS011;58173;52.500;5.494;2023-07-28T08:28:06;12.07;;;5.95;;
70605;SDS011;58173;52.500;5.494;2023-07-28T08:30:33;18.40;;;6.20;;
70605;SDS011;58173;52.500;5.494;2023-07-28T08:33:01;15.75;;;5.80;;
70605;SDS011;58173;52.500;5.494;2023-07-28T08:35:28;10.40;;;4.97;;
70605;SDS011;58173;52.500;5.494;2023-07-28T08:37:58;12.55;;;6.10;;
70605;SDS011;58173;52.500;5.494;2023-07-28T08:40:25;13.90;;;5.95;;
70605;SDS011;58173;52.500;5.494;2023-07-28T08:42:53;13.38;;;6.20;;
70605;SDS011;58173;52.500;5.494;2023-07-28T08:45:23;13.27;;;5.70;;
70605;SDS011;58173;52.500;5.494;2023-07-28T08:47:50;13.05;;;6.30;;
70605;SDS011;58173;52.500;5.494;2023-07-28T08:50:18;16.13;;;7.03;;
70605;SDS011;58173;52.500;5.494;2023-07-28T08:52:45;15.43;;;6.30;;
70605;SDS011;58173;52.500;5.494;2023-07-28T08:55:13;14.70;;;6.93;;
70605;SDS011;58173;52.500;5.494;2023-07-28T08:57:40;13.60;;;6.03;;
70605;SDS011;58173;52.500;5.494;2023-07-28T09:00:10;14.30;;;5.63;;
70605;SDS011;58173;52.500;5.494;2023-07-28T09:02:41;16.67;;;6.28;;
70605;SDS011;58173;52.500;5.494;2023-07-28T09:05:16;15.80;;;6.22;;
70605;SDS011;58173;52.500;5.494;2023-07-28T09:07:44;12.38;;;5.38;;
70605;SDS011;58173;52.500;5.494;2023-07-28T09:10:14;14.77;;;6.22;;
70605;SDS011;58173;52.500;5.494;2023-07-28T09:12:44;12.63;;;6.20;;
70605;SDS011;58173;52.500;5.494;2023-07-28T09:15:12;14.55;;;6.32;;
70605;SDS011;58173;52.500;5.494;2023-07-28T09:17:43;12.80;;;6.57;;
70605;SDS011;58173;52.500;5.494;2023-07-28T09:20:14;13.85;;;5.82;;
70605;SDS011;58173;52.500;5.494;2023-07-28T09:22:42;12.30;;;6.18;;
70605;SDS011;58173;52.500;5.494;2023-07-28T09:25:13;13.88;;;5.53;;
70605;SDS011;58173;52.500;5.494;2023-07-28T09:27:49;15.90;;;5.80;;
70605;SDS011;58173;52.500;5.494;2023-07-28T09:30:16;16.50;;;5.65;;
70605;SDS011;58173;52.500;5.494;2023-07-28T09:32:46;12.73;;;5.32;;
70605;SDS011;58173;52.500;5.494;2023-07-28T09:35:14;15.02;;;5.70;;
70605;SDS011;58173;52.500;5.494;2023-07-28T09:37:43;12.85;;;5.72;;
70605;SDS011;58173;52.500;5.494;2023-07-28T09:40:14;12.77;;;4.90;;
70605;SDS011;58173;52.500;5.494;2023-07-28T09:42:42;14.35;;;5.07;;
70605;SDS011;58173;52.500;5.494;2023-07-28T09:45:21;10.20;;;4.85;;
70605;SDS011;58173;52.500;5.494;2023-07-28T09:48:04;12.73;;;4.82;;
70605;SDS011;58173;52.500;5.494;2023-07-28T09:50:36;10.18;;;4.93;;
70605;SDS011;58173;52.500;5.494;2023-07-28T09:53:04;12.20;;;4.95;;
70605;SDS011;58173;52.500;5.494;2023-07-28T09:55:33;10.95;;;4.75;;
70605;SDS011;58173;52.500;5.494;2023-07-28T09:58:03;12.25;;;4.72;;
70605;SDS011;58173;52.500;5.494;2023-07-28T10:00:32;13.52;;;4.80;;
70605;SDS011;58173;52.500;5.494;2023-07-28T10:03:01;10.80;;;4.47;;
70605;SDS011;58173;52.500;5.494;2023-07-28T10:05:28;11.40;;;4.88;;
70605;SDS011;58173;52.500;5.494;2023-07-28T10:07:56;10.27;;;4.13;;
70605;SDS011;58173;52.500;5.494;2023-07-28T10:10:24;9.85;;;4.30;;
70605;SDS011;58173;52.500;5.494;2023-07-28T10:12:54;12.02;;;4.88;;
70605;SDS011;58173;52.500;5.494;2023-07-28T10:15:27;9.82;;;4.47;;
70605;SDS011;58173;52.500;5.494;2023-07-28T10:17:55;10.45;;;4.35;;
70605;SDS011;58173;52.500;5.494;2023-07-28T10:20:37;9.95;;;4.22;;
70605;SDS011;58173;52.500;5.494;2023-07-28T10:23:12;10.68;;;4.28;;
70605;SDS011;58173;52.500;5.494;2023-07-28T10:25:40;12.23;;;3.92;;
70605;SDS011;58173;52.500;5.494;2023-07-28T10:28:24;8.48;;;3.85;;
70605;SDS011;58173;52.500;5.494;2023-07-28T10:30:52;8.25;;;4.10;;
70605;SDS011;58173;52.500;5.494;2023-07-28T10:36:15;9.02;;;4.32;;
70605;SDS011;58173;52.500;5.494;2023-07-28T10:38:43;9.30;;;4.03;;
70605;SDS011;58173;52.500;5.494;2023-07-28T10:41:11;9.07;;;3.95;;
70605;SDS011;58173;52.500;5.494;2023-07-28T10:43:39;10.95;;;4.32;;
70605;SDS011;58173;52.500;5.494;2023-07-28T10:46:08;9.98;;;4.28;;
70605;SDS011;58173;52.500;5.494;2023-07-28T10:48:36;10.30;;;4.10;;
70605;SDS011;58173;52.500;5.494;2023-07-28T10:51:04;8.82;;;4.22;;
70605;SDS011;58173;52.500;5.494;2023-07-28T10:53:31;13.30;;;4.45;;
70605;SDS011;58173;52.500;5.494;2023-07-28T10:56:02;12.15;;;4.97;;
70605;SDS011;58173;52.500;5.494;2023-07-28T11:00:58;11.82;;;4.10;;
70605;SDS011;58173;52.500;5.494;2023-07-28T11:03:25;9.68;;;4.47;;
70605;SDS011;58173;52.500;5.494;2023-07-28T11:05:55;11.30;;;4.40;;
70605;SDS011;58173;52.500;5.494;2023-07-28T11:08:24;9.15;;;4.22;;
70605;SDS011;58173;52.500;5.494;2023-07-28T11:10:52;10.27;;;4.50;;
70605;SDS011;58173;52.500;5.494;2023-07-28T11:13:19;10.38;;;4.78;;
70605;SDS011;58173;52.500;5.494;2023-07-28T11:15:51;9.73;;;4.72;;
70605;SDS011;58173;52.500;5.494;2023-07-28T11:18:18;10.93;;;4.55;;
70605;SDS011;58173;52.500;5.494;2023-07-28T11:20:45;11.02;;;5.28;;
70605;SDS011;58173;52.500;5.494;2023-07-28T11:23:13;10.57;;;4.50;;
70605;SDS011;58173;52.500;5.494;2023-07-28T11:25:41;11.50;;;4.50;;
70605;SDS011;58173;52.500;5.494;2023-07-28T11:28:10;13.15;;;4.35;;
70605;SDS011;58173;52.500;5.494;2023-07-28T11:30:38;10.98;;;4.30;;
70605;SDS011;58173;52.500;5.494;2023-07-28T11:33:08;10.55;;;5.15;;
70605;SDS011;58173;52.500;5.494;2023-07-28T11:35:37;10.23;;;4.63;;
70605;SDS011;58173;52.500;5.494;2023-07-28T11:38:05;10.05;;;4.72;;
70605;SDS011;58173;52.500;5.494;2023-07-28T11:43:03;10.68;;;4.45;;
70605;SDS011;58173;52.500;5.494;2023-07-28T11:45:30;13.73;;;5.50;;
70605;SDS011;58173;52.500;5.494;2023-07-28T11:48:01;11.43;;;4.60;;
70605;SDS011;58173;52.500;5.494;2023-07-28T11:50:37;8.68;;;4.55;;
70605;SDS011;58173;52.500;5.494;2023-07-28T11:53:08;10.60;;;4.53;;
70605;SDS011;58173;52.500;5.494;2023-07-28T11:55:36;10.15;;;5.00;;
70605;SDS011;58173;52.500;5.494;2023-07-28T11:58:07;11.57;;;4.93;;
70605;SDS011;58173;52.500;5.494;2023-07-28T12:00:38;11.45;;;4.38;;
70605;SDS011;58173;52.500;5.494;2023-07-28T12:03:07;9.05;;;3.78;;
70605;SDS011;58173;52.500;5.494;2023-07-28T12:05:39;9.65;;;4.00;;
70605;SDS011;58173;52.500;5.494;2023-07-28T12:08:10;9.02;;;4.30;;
70605;SDS011;58173;52.500;5.494;2023-07-28T12:10:37;10.55;;;4.57;;
70605;SDS011;58173;52.500;5.494;2023-07-28T12:13:50;8.95;;;3.95;;
70605;SDS011;58173;52.500;5.494;2023-07-28T12:19:07;10.88;;;4.20;;
70605;SDS011;58173;52.500;5.494;2023-07-28T12:21:35;10.20;;;4.00;;
70605;SDS011;58173;52.500;5.494;2023-07-28T12:24:05;8.48;;;4.00;;
70605;SDS011;58173;52.500;5.494;2023-07-28T12:26:33;8.20;;;3.92;;
70605;SDS011;58173;52.500;5.494;2023-07-28T12:29:05;8.70;;;3.92;;
70605;SDS011;58173;52.500;5.494;2023-07-28T12:31:35;8.45;;;3.72;;
70605;SDS011;58173;52.500;5.494;2023-07-28T12:36:32;12.35;;;3.92;;
70605;SDS011;58173;52.500;5.494;2023-07-28T12:39:06;7.95;;;3.60;;
70605;SDS011;58173;52.500;5.494;2023-07-28T12:41:41;10.20;;;4.00;;
70605;SDS011;58173;52.500;5.494;2023-07-28T12:44:12;9.43;;;4.32;;
70605;SDS011;58173;52.500;5.494;2023-07-28T12:46:42;9.40;;;4.00;;
70605;SDS011;58173;52.500;5.494;2023-07-28T12:49:09;8.80;;;4.00;;
70605;SDS011;58173;52.500;5.494;2023-07-28T12:51:46;9.65;;;4.22;;
70605;SDS011;58173;52.500;5.494;2023-07-28T12:54:17;10.50;;;4.22;;
70605;SDS011;58173;52.500;5.494;2023-07-28T12:56:46;10.25;;;4.10;;
70605;SDS011;58173;52.500;5.494;2023-07-28T12:59:14;8.35;;;3.78;;
70605;SDS011;58173;52.500;5.494;2023-07-28T13:01:44;9.80;;;4.10;;
70605;SDS011;58173;52.500;5.494;2023-07-28T13:04:11;9.50;;;4.45;;
70605;SDS011;58173;52.500;5.494;2023-07-28T13:06:39;9.30;;;3.88;;
70605;SDS011;58173;52.500;5.494;2023-07-28T13:09:07;8.80;;;3.83;;
70605;SDS011;58173;52.500;5.494;2023-07-28T13:11:37;9.52;;;3.80;;
70605;SDS011;58173;52.500;5.494;2023-07-28T13:14:07;9.48;;;3.67;;
70605;SDS011;58173;52.500;5.494;2023-07-28T13:16:35;6.82;;;3.35;;
70605;SDS011;58173;52.500;5.494;2023-07-28T13:19:04;10.95;;;3.55;;
70605;SDS011;58173;52.500;5.494;2023-07-28T13:21:32;7.93;;;3.45;;
70605;SDS011;58173;52.500;5.494;2023-07-28T13:24:02;8.07;;;3.65;;
70605;SDS011;58173;52.500;5.494;2023-07-28T13:26:29;9.60;;;3.60;;
70605;SDS011;58173;52.500;5.494;2023-07-28T13:28:57;8.90;;;3.65;;
70605;SDS011;58173;52.500;5.494;2023-07-28T13:31:28;7.82;;;3.13;;
70605;SDS011;58173;52.500;5.494;2023-07-28T13:33:55;8.45;;;3.50;;
70605;SDS011;58173;52.500;5.494;2023-07-28T13:36:24;7.25;;;3.50;;
70605;SDS011;58173;52.500;5.494;2023-07-28T13:38:52;9.88;;;3.70;;
70605;SDS011;58173;52.500;5.494;2023-07-28T13:41:19;10.05;;;3.92;;
70605;SDS011;58173;52.500;5.494;2023-07-28T13:43:46;7.70;;;3.72;;
70605;SDS011;58173;52.500;5.494;2023-07-28T13:46:14;9.98;;;3.78;;
70605;SDS011;58173;52.500;5.494;2023-07-28T13:48:41;8.43;;;3.90;;
70605;SDS011;58173;52.500;5.494;2023-07-28T13:51:19;9.07;;;3.72;;
70605;SDS011;58173;52.500;5.494;2023-07-28T13:54:06;8.45;;;3.72;;
70605;SDS011;58173;52.500;5.494;2023-07-28T13:56:36;8.30;;;3.40;;
70605;SDS011;58173;52.500;5.494;2023-07-28T13:59:03;9.52;;;3.30;;
70605;SDS011;58173;52.500;5.494;2023-07-28T14:01:32;7.47;;;3.35;;
70605;SDS011;58173;52.500;5.494;2023-07-28T14:04:00;7.82;;;3.42;;
70605;SDS011;58173;52.500;5.494;2023-07-28T14:06:27;7.70;;;3.50;;
70605;SDS011;58173;52.500;5.494;2023-07-28T14:08:54;7.68;;;3.40;;
70605;SDS011;58173;52.500;5.494;2023-07-28T14:11:22;7.18;;;3.33;;
70605;SDS011;58173;52.500;5.494;2023-07-28T14:13:49;7.75;;;3.78;;
70605;SDS011;58173;52.500;5.494;2023-07-28T14:16:16;8.32;;;3.53;;
70605;SDS011;58173;52.500;5.494;2023-07-28T14:18:48;9.48;;;4.10;;
70605;SDS011;58173;52.500;5.494;2023-07-28T14:21:16;8.88;;;3.95;;
70605;SDS011;58173;52.500;5.494;2023-07-28T14:23:43;8.35;;;4.20;;
70605;SDS011;58173;52.500;5.494;2023-07-28T14:26:10;7.63;;;3.55;;
70605;SDS011;58173;52.500;5.494;2023-07-28T14:28:38;8.32;;;3.78;;
70605;SDS011;58173;52.500;5.494;2023-07-28T14:31:07;8.48;;;3.90;;
70605;SDS011;58173;52.500;5.494;2023-07-28T14:33:34;8.25;;;3.55;;
70605;SDS011;58173;52.500;5.494;2023-07-28T14:36:02;7.72;;;3.40;;
70605;SDS011;58173;52.500;5.494;2023-07-28T14:38:29;7.15;;;3.15;;
70605;SDS011;58173;52.500;5.494;2023-07-28T14:40:56;6.95;;;3.20;;
70605;SDS011;58173;52.500;5.494;2023-07-28T14:43:24;6.45;;;2.95;;
70605;SDS011;58173;52.500;5.494;2023-07-28T14:45:51;7.25;;;2.88;;
70605;SDS011;58173;52.500;5.494;2023-07-28T14:48:21;8.88;;;3.25;;
70605;SDS011;58173;52.500;5.494;2023-07-28T14:50:48;7.90;;;3.03;;
70605;SDS011;58173;52.500;5.494;2023-07-28T14:53:32;7.13;;;3.15;;
70605;SDS011;58173;52.500;5.494;2023-07-28T14:56:02;7.47;;;3.35;;
70605;SDS011;58173;52.500;5.494;2023-07-28T14:58:30;8.95;;;3.50;;
70605;SDS011;58173;52.500;5.494;2023-07-28T15:00:57;8.18;;;3.33;;
70605;SDS011;58173;52.500;5.494;2023-07-28T15:03:27;10.30;;;3.20;;
70605;SDS011;58173;52.500;5.494;2023-07-28T15:05:58;9.23;;;3.58;;
70605;SDS011;58173;52.500;5.494;2023-07-28T15:08:25;7.88;;;3.00;;